createdAt,value
2022-10-11T00:01:18.649Z,9.15
2022-10-11T00:03:45.146Z,10.13
2022-10-11T00:06:11.680Z,9.50
2022-10-11T00:08:38.270Z,11.07
2022-10-11T00:11:08.062Z,8.55
2022-10-11T00:13:34.927Z,11.65
2022-10-11T00:16:01.767Z,12.15
2022-10-11T00:18:28.393Z,12.52
2022-10-11T00:21:06.604Z,11.23
2022-10-11T00:23:33.482Z,9.85
2022-10-11T00:26:02.209Z,13.20
2022-10-11T00:28:29.365Z,9.25
2022-10-11T00:30:56.636Z,10.43
2022-10-11T00:33:23.094Z,10.48
2022-10-11T00:35:49.836Z,11.60
2022-10-11T00:38:16.542Z,13.75
2022-10-11T00:40:43.494Z,12.55
2022-10-11T00:43:23.612Z,13.85
2022-10-11T00:46:11.476Z,10.70
2022-10-11T00:49:21.463Z,11.02
2022-10-11T00:51:53.077Z,9.38
2022-10-11T00:54:23.804Z,8.23
2022-10-11T00:56:55.956Z,11.68
2022-10-11T00:59:26.341Z,10.68
2022-10-11T01:01:52.900Z,9.13
2022-10-11T01:04:19.389Z,9.60
2022-10-11T01:06:47.088Z,8.82
2022-10-11T01:09:14.292Z,9.35
2022-10-11T01:11:43.413Z,9.05
2022-10-11T01:14:37.667Z,8.82
2022-10-11T01:17:28.180Z,7.88
2022-10-11T01:20:19.421Z,9.82
2022-10-11T01:23:24.409Z,7.95
2022-10-11T01:26:26.008Z,11.00
2022-10-11T01:29:19.868Z,7.88
2022-10-11T01:31:53.847Z,7.38
2022-10-11T01:34:32.830Z,7.22
2022-10-11T01:37:08.684Z,7.82
2022-10-11T01:39:51.869Z,8.35
2022-10-11T01:42:19.656Z,8.90
2022-10-11T01:44:49.462Z,8.05
2022-10-11T01:47:21.009Z,6.45
2022-10-11T01:49:57.426Z,7.68
2022-10-11T01:52:26.701Z,8.05
2022-10-11T01:55:12.024Z,6.63
2022-10-11T01:57:55.363Z,7.80
2022-10-11T02:00:25.837Z,7.25
2022-10-11T02:02:58.397Z,7.25
2022-10-11T02:05:50.839Z,6.90
2022-10-11T02:09:07.186Z,8.40
2022-10-11T02:11:36.261Z,9.25
2022-10-11T02:14:10.896Z,11.73
2022-10-11T02:16:52.182Z,8.02
2022-10-11T02:19:22.320Z,8.77
2022-10-11T02:21:54.507Z,7.97
2022-10-11T02:24:37.569Z,7.43
2022-10-11T02:27:06.124Z,7.32
2022-10-11T02:29:35.759Z,7.47
2022-10-11T02:32:02.424Z,8.73
2022-10-11T02:34:35.984Z,9.63
2022-10-11T02:37:10.097Z,8.05
2022-10-11T02:39:47.294Z,7.45
2022-10-11T02:42:26.852Z,9.93
2022-10-11T02:45:30.402Z,7.82
2022-10-11T02:47:58.048Z,8.55
2022-10-11T02:50:24.528Z,9.38
2022-10-11T02:52:50.987Z,7.60
2022-10-11T02:55:17.481Z,10.13
2022-10-11T02:57:44.026Z,8.63
2022-10-11T03:00:11.395Z,8.35
2022-10-11T03:02:37.880Z,8.20
2022-10-11T03:05:04.710Z,9.35
2022-10-11T03:07:31.230Z,11.23
2022-10-11T03:09:57.771Z,7.95
2022-10-11T03:12:24.243Z,8.25
2022-10-11T03:14:50.691Z,9.10
2022-10-11T03:17:35.606Z,9.90
2022-10-11T03:20:04.475Z,8.23
2022-10-11T03:22:30.934Z,9.02
2022-10-11T03:25:02.521Z,7.70
2022-10-11T03:27:30.501Z,7.97
2022-10-11T03:29:57.681Z,8.13
2022-10-11T03:32:24.186Z,8.82
2022-10-11T03:34:50.656Z,8.57
2022-10-11T03:37:17.146Z,8.25
2022-10-11T03:39:45.419Z,8.60
2022-10-11T03:42:12.527Z,7.60
2022-10-11T03:44:39.014Z,11.00
2022-10-11T03:47:05.873Z,8.00
2022-10-11T03:49:32.355Z,10.07
2022-10-11T03:51:59.099Z,10.20
2022-10-11T03:54:25.840Z,8.60
2022-10-11T03:56:52.433Z,7.70
2022-10-11T03:59:18.902Z,8.80
2022-10-11T04:01:45.398Z,8.45
2022-10-11T04:04:11.983Z,8.50
2022-10-11T04:06:38.528Z,8.23
2022-10-11T04:09:05.048Z,10.18
2022-10-11T04:11:31.505Z,8.50
2022-10-11T04:13:58.217Z,8.55
2022-10-11T04:16:24.710Z,8.82
2022-10-11T04:18:51.492Z,8.52
2022-10-11T04:21:17.970Z,9.20
2022-10-11T04:23:44.515Z,7.82
2022-10-11T04:26:10.984Z,9.05
2022-10-11T04:28:37.489Z,8.25
2022-10-11T04:31:05.096Z,8.05
2022-10-11T04:33:31.556Z,7.50
2022-10-11T04:35:58.018Z,9.27
2022-10-11T04:38:24.495Z,10.15
2022-10-11T04:40:51.104Z,7.90
2022-10-11T04:43:18.552Z,7.70
2022-10-11T04:45:45.084Z,9.02
2022-10-11T04:48:11.524Z,9.93
2022-10-11T04:50:37.995Z,8.32
2022-10-11T04:53:07.479Z,9.68
2022-10-11T04:55:33.947Z,8.80
2022-10-11T04:58:02.017Z,9.38
2022-10-11T05:00:28.605Z,9.15
2022-10-11T05:02:55.178Z,9.43
2022-10-11T05:05:21.640Z,8.57
2022-10-11T05:07:48.092Z,8.38
2022-10-11T05:10:14.872Z,9.05
2022-10-11T05:12:41.344Z,7.97
2022-10-11T05:15:08.378Z,8.70
2022-10-11T05:17:35.033Z,9.10
2022-10-11T05:20:01.650Z,9.98
2022-10-11T05:22:28.169Z,9.38
2022-10-11T05:24:54.623Z,9.25
2022-10-11T05:27:21.131Z,10.10
2022-10-11T05:29:47.649Z,10.00
2022-10-11T05:32:14.116Z,10.32
2022-10-11T05:34:40.576Z,8.98
2022-10-11T05:37:07.214Z,8.50
2022-10-11T05:39:33.675Z,8.20
2022-10-11T05:42:00.157Z,8.63
2022-10-11T05:44:26.672Z,9.27
2022-10-11T05:46:53.143Z,9.02
2022-10-11T05:49:19.588Z,9.25
2022-10-11T05:51:46.041Z,9.13
2022-10-11T05:54:12.514Z,9.80
2022-10-11T05:56:38.972Z,9.05
2022-10-11T05:59:06.221Z,8.77
2022-10-11T06:01:32.769Z,9.20
2022-10-11T06:03:59.296Z,8.60
2022-10-11T06:06:25.946Z,9.25
2022-10-11T06:08:52.382Z,9.10
2022-10-11T06:11:27.279Z,10.30
2022-10-11T06:13:55.135Z,9.25
2022-10-11T06:16:21.743Z,10.70
2022-10-11T06:18:48.179Z,10.35
2022-10-11T06:21:15.461Z,9.65
2022-10-11T06:23:41.944Z,10.38
2022-10-11T06:26:09.329Z,13.93
2022-10-11T06:28:36.800Z,10.77
2022-10-11T06:31:05.379Z,10.73
2022-10-11T06:33:32.404Z,10.10
2022-10-11T06:36:01.071Z,9.93
2022-10-11T06:38:27.588Z,10.32
2022-10-11T06:40:54.326Z,12.80
2022-10-11T06:43:21.179Z,13.65
2022-10-11T06:45:47.674Z,12.20
2022-10-11T06:48:14.307Z,14.10
2022-10-11T06:50:59.226Z,20.20
2022-10-11T06:53:27.841Z,18.52
2022-10-11T06:55:54.322Z,19.90
2022-10-11T06:58:20.785Z,14.98
2022-10-11T07:00:47.350Z,15.57
2022-10-11T07:03:13.838Z,14.27
2022-10-11T07:05:40.356Z,16.83
2022-10-11T07:08:06.827Z,18.83
2022-10-11T07:10:35.493Z,11.80
2022-10-11T07:13:02.142Z,15.38
2022-10-11T07:15:28.588Z,12.93
2022-10-11T07:17:55.048Z,16.15
2022-10-11T07:20:21.524Z,14.45
2022-10-11T07:22:48.152Z,12.07
2022-10-11T07:25:14.632Z,14.32
2022-10-11T07:27:41.157Z,19.25
2022-10-11T07:30:08.033Z,63.10
2022-10-11T07:32:34.500Z,54.63
2022-10-11T07:35:01.160Z,22.23
2022-10-11T07:37:27.614Z,19.55
2022-10-11T07:39:54.099Z,17.67
2022-10-11T07:42:21.944Z,16.60
2022-10-11T07:44:48.507Z,20.55
2022-10-11T07:47:15.034Z,18.60
2022-10-11T07:49:41.492Z,13.80
2022-10-11T07:52:08.007Z,15.65
2022-10-11T07:54:34.542Z,16.60
2022-10-11T07:57:01.056Z,14.73
2022-10-11T07:59:27.550Z,23.13
2022-10-11T08:01:54.081Z,23.88
2022-10-11T08:04:21.408Z,19.73
2022-10-11T08:06:52.502Z,17.67
2022-10-11T08:11:46.239Z,16.08
2022-10-11T08:14:12.691Z,18.42
2022-10-11T08:16:39.548Z,18.27
2022-10-11T08:19:06.496Z,20.10
2022-10-11T08:21:33.133Z,17.77
2022-10-11T08:24:02.119Z,16.67
2022-10-11T08:26:28.664Z,18.10
2022-10-11T08:28:55.276Z,17.60
2022-10-11T08:31:21.825Z,19.48
2022-10-11T08:33:48.597Z,16.42
2022-10-11T08:36:15.136Z,20.25
2022-10-11T08:38:42.224Z,18.40
2022-10-11T08:41:29.754Z,18.90
2022-10-11T08:44:14.545Z,18.30
2022-10-11T08:46:45.487Z,19.17
2022-10-11T08:49:14.804Z,16.53
2022-10-11T08:52:13.870Z,16.80
2022-10-11T08:54:49.441Z,18.42
2022-10-11T08:57:27.351Z,14.05
2022-10-11T08:59:56.412Z,14.45
2022-10-11T09:02:25.745Z,13.88
2022-10-11T09:04:54.432Z,17.92
2022-10-11T09:07:49.835Z,15.10
2022-10-11T09:10:22.256Z,13.07
2022-10-11T09:13:03.939Z,14.32
2022-10-11T09:15:49.260Z,13.23
2022-10-11T09:18:24.858Z,12.40
2022-10-11T09:21:09.058Z,11.40
2022-10-11T09:24:08.979Z,13.68
2022-10-11T09:26:47.625Z,15.23
2022-10-11T09:29:46.429Z,13.40
2022-10-11T09:32:16.358Z,13.98
2022-10-11T09:34:43.506Z,15.07
2022-10-11T09:37:32.654Z,16.52
2022-10-11T09:40:35.964Z,12.40
2022-10-11T09:43:02.416Z,12.88
2022-10-11T09:45:28.912Z,17.40
2022-10-11T09:47:59.642Z,13.27
2022-10-11T09:50:29.572Z,14.68
2022-10-11T09:53:03.311Z,15.10
2022-10-11T09:55:36.112Z,13.65
2022-10-11T09:58:04.830Z,14.27
2022-10-11T10:00:33.803Z,14.60
2022-10-11T10:03:04.554Z,13.05
2022-10-11T10:05:33.728Z,14.82
2022-10-11T10:08:04.994Z,12.13
2022-10-11T10:10:34.827Z,12.63
2022-10-11T10:13:04.414Z,11.20
2022-10-11T10:15:34.643Z,11.35
2022-10-11T10:18:01.991Z,11.05
2022-10-11T10:20:32.320Z,11.88
2022-10-11T10:23:21.567Z,9.07
2022-10-11T10:25:51.124Z,8.38
2022-10-11T10:28:27.084Z,6.18
2022-10-11T10:30:55.965Z,9.25
2022-10-11T10:33:25.523Z,11.68
2022-10-11T10:36:08.504Z,8.32
2022-10-11T10:38:52.208Z,8.77
2022-10-11T10:41:19.445Z,8.68
2022-10-11T10:43:56.189Z,8.27
2022-10-11T10:46:22.612Z,6.45
2022-10-11T10:49:48.493Z,11.88
2022-10-11T10:52:40.894Z,9.30
2022-10-11T10:55:34.949Z,10.23
2022-10-11T10:58:41.951Z,10.32
2022-10-11T11:01:18.836Z,7.82
2022-10-11T11:04:10.008Z,9.80
2022-10-11T11:06:55.373Z,9.10
2022-10-11T11:09:37.790Z,7.57
2022-10-11T11:12:36.149Z,10.70
2022-10-11T11:15:10.700Z,7.85
2022-10-11T11:18:01.716Z,9.88
2022-10-11T11:20:52.033Z,8.98
2022-10-11T11:23:21.831Z,7.72
2022-10-11T11:26:20.179Z,9.65
2022-10-11T11:29:02.311Z,8.27
2022-10-11T11:31:47.580Z,12.98
2022-10-11T11:34:14.054Z,5.75
2022-10-11T11:36:44.804Z,8.10
2022-10-11T11:39:23.114Z,6.60
2022-10-11T11:41:56.957Z,7.10
2022-10-11T11:44:47.248Z,8.50
2022-10-11T11:47:33.594Z,8.30
2022-10-11T11:50:05.643Z,7.45
2022-10-11T11:52:40.831Z,12.65
2022-10-11T11:55:20.948Z,9.35
2022-10-11T11:58:06.971Z,8.23
2022-10-11T12:00:49.669Z,6.32
2022-10-11T12:03:28.492Z,9.43
2022-10-11T12:06:13.328Z,7.13
2022-10-11T12:08:43.152Z,9.38
2022-10-11T12:11:21.659Z,8.23
2022-10-11T12:13:51.967Z,5.82
2022-10-11T12:16:20.160Z,7.82
2022-10-11T12:19:01.482Z,8.60
2022-10-11T12:21:40.454Z,8.27
2022-10-11T12:24:12.811Z,6.55
2022-10-11T12:26:54.027Z,7.65
2022-10-11T12:29:44.116Z,7.65
2022-10-11T12:32:36.869Z,7.82
2022-10-11T12:35:31.490Z,10.77
2022-10-11T12:38:23.766Z,11.02
2022-10-11T12:41:14.467Z,9.73
2022-10-11T12:44:27.309Z,6.40
2022-10-11T12:46:53.709Z,8.95
2022-10-11T12:49:41.871Z,8.52
2022-10-11T12:52:17.533Z,9.75
2022-10-11T12:54:43.949Z,5.53
2022-10-11T12:57:45.925Z,9.30
2022-10-11T13:00:20.624Z,9.80
2022-10-11T13:02:48.404Z,8.07
2022-10-11T13:05:29.680Z,7.60
2022-10-11T13:08:02.310Z,7.15
2022-10-11T13:10:45.181Z,8.10
2022-10-11T13:13:24.481Z,6.97
2022-10-11T13:15:54.173Z,7.72
2022-10-11T13:18:23.821Z,8.95
2022-10-11T13:20:50.456Z,7.18
2022-10-11T13:23:27.236Z,8.48
2022-10-11T13:25:55.294Z,10.90
2022-10-11T13:28:23.432Z,6.50
2022-10-11T13:30:54.512Z,9.82
2022-10-11T13:33:33.135Z,8.98
2022-10-11T13:36:01.693Z,6.95
2022-10-11T13:38:33.373Z,9.35
2022-10-11T13:41:04.223Z,8.45
2022-10-11T13:43:31.463Z,8.88
2022-10-11T13:46:00.327Z,5.18
2022-10-11T13:48:31.687Z,7.90
2022-10-11T13:51:05.966Z,9.45
2022-10-11T13:53:33.578Z,7.70
2022-10-11T13:56:04.256Z,8.85
2022-10-11T13:58:38.631Z,9.05
2022-10-11T14:01:16.614Z,7.38
2022-10-11T14:03:46.098Z,8.68
2022-10-11T14:06:13.018Z,7.22
2022-10-11T14:08:55.158Z,10.48
2022-10-11T14:11:35.532Z,6.97
2022-10-11T14:14:27.987Z,7.43
2022-10-11T14:17:04.340Z,7.55
2022-10-11T14:19:31.061Z,7.93
2022-10-11T14:21:57.646Z,10.02
2022-10-11T14:24:24.167Z,11.60
2022-10-11T14:26:53.898Z,8.52
2022-10-11T14:29:26.619Z,8.35
2022-10-11T14:32:04.703Z,6.50
2022-10-11T14:34:31.539Z,8.00
2022-10-11T14:36:58.283Z,8.05
2022-10-11T14:39:27.810Z,7.18
2022-10-11T14:41:54.675Z,7.85
2022-10-11T14:44:22.093Z,9.25
2022-10-11T14:46:50.647Z,8.63
2022-10-11T14:49:23.042Z,9.27
2022-10-11T14:51:50.660Z,7.22
2022-10-11T14:54:20.629Z,8.18
2022-10-11T14:56:47.087Z,8.70
2022-10-11T14:59:19.456Z,9.05
2022-10-11T15:01:51.490Z,9.85
2022-10-11T15:04:18.714Z,7.35
2022-10-11T15:06:45.239Z,10.60
2022-10-11T15:09:11.856Z,9.57
2022-10-11T15:11:38.823Z,8.88
2022-10-11T15:14:06.459Z,11.45
2022-10-11T15:16:33.508Z,9.43
2022-10-11T15:19:00.034Z,6.38
2022-10-11T15:21:28.205Z,5.22
2022-10-11T15:23:55.960Z,11.27
2022-10-11T15:26:28.366Z,9.60
2022-10-11T15:28:57.131Z,8.63
2022-10-11T15:31:23.914Z,9.00
2022-10-11T15:33:50.570Z,7.53
2022-10-11T15:36:22.234Z,8.48
2022-10-11T15:41:17.107Z,10.43
2022-10-11T15:43:44.434Z,8.07
2022-10-11T15:46:18.642Z,8.13
2022-10-11T15:48:46.293Z,9.68
2022-10-11T15:51:13.004Z,8.73
2022-10-11T15:53:39.528Z,10.80
2022-10-11T15:56:09.688Z,7.32
2022-10-11T15:58:39.283Z,9.07
2022-10-11T16:01:09.657Z,10.80
2022-10-11T16:03:36.366Z,10.55
2022-10-11T16:06:05.488Z,10.77
2022-10-11T16:08:33.292Z,9.02
2022-10-11T16:10:59.828Z,8.65
2022-10-11T16:13:26.306Z,8.50
2022-10-11T16:15:52.790Z,9.23
2022-10-11T16:18:20.879Z,8.93
2022-10-11T16:20:48.900Z,8.13
2022-10-11T16:23:15.626Z,9.18
2022-10-11T16:25:42.367Z,10.20
2022-10-11T16:28:10.116Z,9.50
2022-10-11T16:30:43.713Z,9.18
2022-10-11T16:33:10.259Z,7.03
2022-10-11T16:35:41.441Z,8.63
2022-10-11T16:38:08.023Z,8.63
2022-10-11T16:40:36.032Z,10.35
2022-10-11T16:43:07.417Z,8.90
2022-10-11T16:45:35.125Z,9.38
2022-10-11T16:48:01.926Z,8.45
2022-10-11T16:50:29.102Z,8.32
2022-10-11T16:52:56.004Z,7.93
2022-10-11T16:55:22.967Z,7.70
2022-10-11T16:57:49.429Z,8.07
2022-10-11T17:00:16.723Z,8.40
2022-10-11T17:02:43.323Z,10.55
2022-10-11T17:05:09.791Z,8.18
2022-10-11T17:07:36.359Z,8.00
2022-10-11T17:10:02.953Z,9.32
2022-10-11T17:12:29.519Z,8.50
2022-10-11T17:14:56.353Z,11.15
2022-10-11T17:17:22.883Z,7.60
2022-10-11T17:19:49.518Z,8.57
2022-10-11T17:22:18.709Z,7.57
2022-10-11T17:24:45.935Z,6.05
2022-10-11T17:27:12.648Z,8.13
2022-10-11T17:29:39.160Z,6.55
2022-10-11T17:32:06.041Z,8.00
2022-10-11T17:34:33.125Z,8.45
2022-10-11T17:36:59.585Z,7.70
2022-10-11T17:39:26.083Z,8.52
2022-10-11T17:41:52.566Z,8.90
2022-10-11T17:44:19.649Z,8.95
2022-10-11T17:46:46.591Z,7.22
2022-10-11T17:49:13.870Z,8.93
2022-10-11T17:51:41.321Z,7.32
2022-10-11T17:54:12.537Z,9.77
2022-10-11T17:56:40.700Z,6.82
2022-10-11T17:59:08.274Z,9.27
2022-10-11T18:01:34.871Z,7.18
2022-10-11T18:04:04.939Z,5.93
2022-10-11T18:06:38.031Z,7.70
2022-10-11T18:09:04.792Z,7.22
2022-10-11T18:11:31.731Z,8.02
2022-10-11T18:13:58.226Z,11.52
2022-10-11T18:16:27.292Z,13.55
2022-10-11T18:18:57.169Z,14.65
2022-10-11T18:21:33.425Z,33.92
2022-10-11T18:24:02.331Z,32.72
2022-10-11T18:26:30.719Z,69.95
2022-10-11T18:28:58.630Z,84.30
2022-10-11T18:31:28.328Z,85.10
2022-10-11T18:33:55.561Z,73.97
2022-10-11T18:36:24.920Z,58.15
2022-10-11T18:38:57.117Z,40.67
2022-10-11T18:41:30.435Z,31.45
2022-10-11T18:43:59.483Z,27.55
2022-10-11T18:46:26.774Z,24.25
2022-10-11T18:48:55.355Z,21.33
2022-10-11T18:51:27.656Z,19.60
2022-10-11T18:53:54.899Z,20.17
2022-10-11T18:56:26.723Z,18.73
2022-10-11T19:01:27.093Z,17.60
2022-10-11T19:03:56.527Z,17.55
2022-10-11T19:06:26.490Z,17.20
2022-10-11T19:08:55.631Z,16.77
2022-10-11T19:11:23.761Z,15.60
2022-10-11T19:13:56.264Z,14.60
2022-10-11T19:16:23.391Z,15.60
2022-10-11T19:18:50.479Z,16.63
2022-10-11T19:21:17.149Z,17.02
2022-10-11T19:23:45.657Z,16.88
2022-10-11T19:26:26.448Z,17.98
2022-10-11T19:29:01.916Z,17.67
2022-10-11T19:31:28.932Z,19.13
2022-10-11T19:33:57.345Z,18.70
2022-10-11T19:36:24.162Z,17.05
2022-10-11T19:38:51.336Z,17.58
2022-10-11T19:41:19.586Z,19.17
2022-10-11T19:43:46.832Z,18.48
2022-10-11T19:46:20.134Z,19.38
2022-10-11T19:48:54.345Z,20.30
2022-10-11T19:51:25.873Z,20.90
2022-10-11T19:53:59.956Z,21.10
2022-10-11T19:56:28.595Z,21.45
2022-10-11T19:58:55.427Z,20.98
2022-10-11T20:01:23.981Z,23.60
2022-10-11T20:03:53.833Z,25.95
2022-10-11T20:06:21.954Z,25.52
2022-10-11T20:08:59.822Z,26.15
2022-10-11T20:11:35.932Z,21.55
2022-10-11T20:14:02.391Z,26.05
2022-10-11T20:16:28.999Z,20.38
2022-10-11T20:18:58.563Z,20.25
2022-10-11T20:21:26.104Z,19.10
2022-10-11T20:23:52.942Z,19.95
2022-10-11T20:26:22.255Z,21.33
2022-10-11T20:28:55.702Z,22.05
2022-10-11T20:31:28.200Z,19.33
2022-10-11T20:33:56.838Z,23.65
2022-10-11T20:36:26.677Z,22.40
2022-10-11T20:38:53.205Z,19.23
2022-10-11T20:41:22.401Z,22.17
2022-10-11T20:43:54.071Z,23.30
2022-10-11T20:46:23.004Z,23.00
2022-10-11T20:48:52.097Z,21.50
2022-10-11T20:51:18.707Z,23.05
2022-10-11T20:53:45.672Z,22.45
2022-10-11T20:56:14.862Z,24.85
2022-10-11T20:58:42.168Z,21.05
2022-10-11T21:01:14.121Z,23.05
2022-10-11T21:03:40.953Z,23.23
2022-10-11T21:06:07.900Z,23.13
2022-10-11T21:08:35.596Z,22.70
2022-10-11T21:11:03.787Z,25.33
2022-10-11T21:13:30.645Z,23.17
2022-10-11T21:16:04.378Z,24.27
2022-10-11T21:18:31.112Z,25.98
2022-10-11T21:20:57.595Z,24.52
2022-10-11T21:23:24.087Z,24.55
2022-10-11T21:25:50.617Z,25.77
2022-10-11T21:28:18.211Z,28.98
2022-10-11T21:30:44.683Z,28.48
2022-10-11T21:33:11.197Z,26.20
2022-10-11T21:35:40.140Z,26.25
2022-10-11T21:38:06.656Z,25.48
2022-10-11T21:40:33.134Z,27.55
2022-10-11T21:42:59.617Z,23.98
2022-10-11T21:45:26.102Z,23.15
2022-10-11T21:47:52.847Z,22.95
2022-10-11T21:50:19.314Z,22.02
2022-10-11T21:52:45.784Z,22.55
2022-10-11T21:55:12.699Z,22.85
2022-10-11T21:57:42.633Z,22.17
2022-10-11T22:00:09.795Z,21.98
2022-10-11T22:02:39.841Z,22.60
2022-10-11T22:05:06.365Z,21.65
2022-10-11T22:07:32.825Z,21.23
2022-10-11T22:09:59.280Z,22.10
2022-10-11T22:12:25.747Z,25.83
2022-10-11T22:14:52.282Z,25.23
2022-10-11T22:17:18.761Z,23.60
2022-10-11T22:19:45.266Z,24.88
2022-10-11T22:22:12.039Z,25.92
2022-10-11T22:24:38.507Z,26.63
2022-10-11T22:27:05.005Z,25.45
2022-10-11T22:29:34.184Z,23.38
2022-10-11T22:32:01.005Z,24.30
2022-10-11T22:34:31.115Z,25.55
2022-10-11T22:36:57.587Z,22.65
2022-10-11T22:39:24.062Z,24.30
2022-10-11T22:41:50.562Z,23.50
2022-10-11T22:44:17.015Z,26.27
2022-10-11T22:46:43.484Z,23.05
2022-10-11T22:49:09.962Z,22.52
2022-10-11T22:51:36.452Z,24.85
2022-10-11T22:54:02.996Z,21.25
2022-10-11T22:56:29.623Z,23.92
2022-10-11T22:58:56.148Z,21.67
2022-10-11T23:01:22.617Z,21.92
2022-10-11T23:03:50.585Z,21.38
2022-10-11T23:06:17.862Z,21.25
2022-10-11T23:08:44.395Z,19.58
2022-10-11T23:11:11.309Z,18.75
2022-10-11T23:13:37.829Z,17.30
2022-10-11T23:16:09.644Z,17.27
2022-10-11T23:21:04.235Z,17.85
2022-10-11T23:23:30.725Z,20.42
2022-10-11T23:26:12.244Z,21.05
2022-10-11T23:28:39.095Z,20.80
2022-10-11T23:31:10.644Z,18.70
2022-10-11T23:33:37.107Z,18.67
2022-10-11T23:36:03.780Z,17.15
2022-10-11T23:38:30.339Z,17.30
2022-10-11T23:40:56.837Z,16.25
2022-10-11T23:43:23.737Z,15.38
2022-10-11T23:45:50.222Z,14.88
2022-10-11T23:48:16.708Z,14.20
2022-10-11T23:50:43.258Z,14.23
2022-10-11T23:53:10.629Z,13.85
2022-10-11T23:55:37.092Z,12.70
2022-10-11T23:58:03.545Z,13.13
